sensor_id;sensor_type;location;lat;lon;timestamp;temperature;humidity
10133;DHT22;5106;50.926;7.080;2023-02-15T19:32:05;6.50;78.50
10133;DHT22;5106;50.926;7.080;2023-02-15T19:34:30;6.50;78.90
10133;DHT22;5106;50.926;7.080;2023-02-15T19:36:56;6.50;78.80
10133;DHT22;5106;50.926;7.080;2023-02-15T19:41:47;6.50;78.60
10133;DHT22;5106;50.926;7.080;2023-02-15T19:44:13;6.50;78.50
10133;DHT22;5106;50.926;7.080;2023-02-15T19:46:38;6.50;78.50
10133;DHT22;5106;50.926;7.080;2023-02-15T19:49:04;6.40;78.50
10133;DHT22;5106;50.926;7.080;2023-02-15T19:51:30;6.40;78.60
10133;DHT22;5106;50.926;7.080;2023-02-15T19:53:55;6.40;78.70
10133;DHT22;5106;50.926;7.080;2023-02-15T19:56:23;6.40;78.70
10133;DHT22;5106;50.926;7.080;2023-02-15T19:58:49;6.40;78.70
10133;DHT22;5106;50.926;7.080;2023-02-15T20:01:17;6.40;78.80
10133;DHT22;5106;50.926;7.080;2023-02-15T20:03:43;6.40;78.70
10133;DHT22;5106;50.926;7.080;2023-02-15T20:06:15;6.40;78.60
10133;DHT22;5106;50.926;7.080;2023-02-15T20:08:42;6.40;78.70
10133;DHT22;5106;50.926;7.080;2023-02-15T20:11:12;6.40;78.70
10133;DHT22;5106;50.926;7.080;2023-02-15T20:13:38;6.30;78.70
10133;DHT22;5106;50.926;7.080;2023-02-15T20:16:05;6.30;78.60
10133;DHT22;5106;50.926;7.080;2023-02-15T20:18:33;6.30;78.80
10133;DHT22;5106;50.926;7.080;2023-02-15T20:20:59;6.20;78.90
10133;DHT22;5106;50.926;7.080;2023-02-15T20:23:31;6.20;78.80
10133;DHT22;5106;50.926;7.080;2023-02-15T20:25:59;6.20;79.00
10133;DHT22;5106;50.926;7.080;2023-02-15T20:28:29;6.10;79.00
10133;DHT22;5106;50.926;7.080;2023-02-15T20:30:54;6.10;79.00
10133;DHT22;5106;50.926;7.080;2023-02-15T20:33:20;6.10;79.00
10133;DHT22;5106;50.926;7.080;2023-02-15T20:35:47;6.10;78.90
10133;DHT22;5106;50.926;7.080;2023-02-15T20:40:44;6.00;79.10
10133;DHT22;5106;50.926;7.080;2023-02-15T20:43:29;6.00;79.10
10133;DHT22;5106;50.926;7.080;2023-02-15T20:45:55;6.00;79.10
10133;DHT22;5106;50.926;7.080;2023-02-15T20:48:21;6.00;79.10
10133;DHT22;5106;50.926;7.080;2023-02-15T20:50:46;5.90;79.30
10133;DHT22;5106;50.926;7.080;2023-02-15T20:53:12;5.90;79.30
10133;DHT22;5106;50.926;7.080;2023-02-15T20:55:38;5.90;79.30
10133;DHT22;5106;50.926;7.080;2023-02-15T20:58:20;5.90;79.30
10133;DHT22;5106;50.926;7.080;2023-02-15T21:00:46;5.90;79.40
10133;DHT22;5106;50.926;7.080;2023-02-15T21:03:12;5.90;79.40
10133;DHT22;5106;50.926;7.080;2023-02-15T21:05:39;5.90;79.20
10133;DHT22;5106;50.926;7.080;2023-02-15T21:08:21;5.80;79.30
10133;DHT22;5106;50.926;7.080;2023-02-15T21:10:49;5.80;79.40
10133;DHT22;5106;50.926;7.080;2023-02-15T21:13:28;5.80;79.50
10133;DHT22;5106;50.926;7.080;2023-02-15T21:15:55;5.70;79.60
10133;DHT22;5106;50.926;7.080;2023-02-15T21:18:23;5.70;79.60
10133;DHT22;5106;50.926;7.080;2023-02-15T21:20:52;5.70;79.10
10133;DHT22;5106;50.926;7.080;2023-02-15T21:23:22;5.70;79.50
10133;DHT22;5106;50.926;7.080;2023-02-15T21:25:49;5.70;79.50
10133;DHT22;5106;50.926;7.080;2023-02-15T21:28:21;5.60;79.60
10133;DHT22;5106;50.926;7.080;2023-02-15T21:30:48;5.60;79.60
10133;DHT22;5106;50.926;7.080;2023-02-15T21:33:15;5.60;79.70
10133;DHT22;5106;50.926;7.080;2023-02-15T21:35:41;5.50;79.60
10133;DHT22;5106;50.926;7.080;2023-02-15T21:38:13;5.50;79.60
10133;DHT22;5106;50.926;7.080;2023-02-15T21:40:39;5.40;79.60
10133;DHT22;5106;50.926;7.080;2023-02-15T21:43:13;5.40;79.80
10133;DHT22;5106;50.926;7.080;2023-02-15T21:45:58;5.40;79.90
10133;DHT22;5106;50.926;7.080;2023-02-15T21:48:42;5.30;79.70
10133;DHT22;5106;50.926;7.080;2023-02-15T21:51:07;5.20;80.10
10133;DHT22;5106;50.926;7.080;2023-02-15T21:53:51;5.20;80.30
10133;DHT22;5106;50.926;7.080;2023-02-15T21:56:19;5.20;80.20
10133;DHT22;5106;50.926;7.080;2023-02-15T21:58:46;5.10;79.80
10133;DHT22;5106;50.926;7.080;2023-02-15T22:01:30;5.10;80.00
10133;DHT22;5106;50.926;7.080;2023-02-15T22:03:57;5.00;80.10
10133;DHT22;5106;50.926;7.080;2023-02-15T22:06:23;5.00;80.10
10133;DHT22;5106;50.926;7.080;2023-02-15T22:08:48;4.90;80.20
10133;DHT22;5106;50.926;7.080;2023-02-15T22:11:17;4.80;80.40
10133;DHT22;5106;50.926;7.080;2023-02-15T22:13:45;4.80;80.50
10133;DHT22;5106;50.926;7.080;2023-02-15T22:16:15;4.80;80.30
10133;DHT22;5106;50.926;7.080;2023-02-15T22:18:41;4.70;80.30
10133;DHT22;5106;50.926;7.080;2023-02-15T22:21:08;4.60;80.40
10133;DHT22;5106;50.926;7.080;2023-02-15T22:23:33;4.60;80.60
10133;DHT22;5106;50.926;7.080;2023-02-15T22:26:05;4.50;80.70
10133;DHT22;5106;50.926;7.080;2023-02-15T22:28:37;4.50;80.90
10133;DHT22;5106;50.926;7.080;2023-02-15T22:31:04;4.40;80.80
10133;DHT22;5106;50.926;7.080;2023-02-15T22:33:32;4.40;80.80
10133;DHT22;5106;50.926;7.080;2023-02-15T22:35:58;4.30;81.00
10133;DHT22;5106;50.926;7.080;2023-02-15T22:38:24;4.30;81.10
10133;DHT22;5106;50.926;7.080;2023-02-15T22:40:52;4.20;81.20
10133;DHT22;5106;50.926;7.080;2023-02-15T22:45:51;4.20;81.20
10133;DHT22;5106;50.926;7.080;2023-02-15T22:48:20;4.20;81.20
10133;DHT22;5106;50.926;7.080;2023-02-15T22:50:46;4.10;81.20
10133;DHT22;5106;50.926;7.080;2023-02-15T22:53:12;4.10;81.20
10133;DHT22;5106;50.926;7.080;2023-02-15T22:55:38;4.10;81.20
10133;DHT22;5106;50.926;7.080;2023-02-15T22:58:04;4.00;81.30
10133;DHT22;5106;50.926;7.080;2023-02-15T23:00:38;4.00;81.40
10133;DHT22;5106;50.926;7.080;2023-02-15T23:03:16;4.00;81.50
10133;DHT22;5106;50.926;7.080;2023-02-15T23:05:42;4.00;81.50
10133;DHT22;5106;50.926;7.080;2023-02-15T23:08:09;3.90;81.40
10133;DHT22;5106;50.926;7.080;2023-02-15T23:10:35;3.90;81.70
10133;DHT22;5106;50.926;7.080;2023-02-15T23:13:01;3.90;81.80
10133;DHT22;5106;50.926;7.080;2023-02-15T23:15:49;3.90;81.90
10133;DHT22;5106;50.926;7.080;2023-02-15T23:18:19;3.90;82.00
10133;DHT22;5106;50.926;7.080;2023-02-15T23:20:54;3.90;82.00
10133;DHT22;5106;50.926;7.080;2023-02-15T23:23:33;3.90;81.90
10133;DHT22;5106;50.926;7.080;2023-02-15T23:26:00;3.90;81.90
10133;DHT22;5106;50.926;7.080;2023-02-15T23:28:33;3.90;81.90
10133;DHT22;5106;50.926;7.080;2023-02-15T23:30:59;3.90;81.90
10133;DHT22;5106;50.926;7.080;2023-02-15T23:33:31;3.80;81.90
10133;DHT22;5106;50.926;7.080;2023-02-15T23:35:58;3.80;82.00
10133;DHT22;5106;50.926;7.080;2023-02-15T23:38:29;3.80;81.90
10133;DHT22;5106;50.926;7.080;2023-02-15T23:40:57;3.80;81.90
10133;DHT22;5106;50.926;7.080;2023-02-15T23:43:47;3.70;82.00
10133;DHT22;5106;50.926;7.080;2023-02-15T23:46:32;3.70;82.20
10133;DHT22;5106;50.926;7.080;2023-02-15T23:49:01;3.80;82.10
10133;DHT22;5106;50.926;7.080;2023-02-15T23:51:39;3.70;82.00
10133;DHT22;5106;50.926;7.080;2023-02-15T23:54:06;3.70;81.90
10133;DHT22;5106;50.926;7.080;2023-02-15T23:56:31;3.70;82.00
10133;DHT22;5106;50.926;7.080;2023-02-15T23:58:57;3.60;82.10
